Terminal Aerodrome Forecast
Issued by NWS Wilmington, OH

Current Version | Previous Version | Text Only | Print | Product List | Glossary Off
Versions: 1 2 3 4 5 6 7 8 9 10 11 12 13 14 15 16 17

462
FTUS41 KILN 300531
TAFCMH
TAF
KCMH 300531Z 3006/3106 22003KT P6SM BKN070
     FM301100 32005KT P6SM FEW070 SCT250
     FM301500 33008KT P6SM SCT040
     FM310000 34003KT P6SM SKC=

USA.gov is the U.S. government's official web portal to all federal, state and local government web resources and services.